createdAt,value
2023-04-25T00:03:57.746Z,99146.63
2023-04-25T00:09:00.113Z,99150.38
2023-04-25T00:14:02.029Z,99158.47
2023-04-25T00:19:04.175Z,99154.03
2023-04-25T00:24:06.483Z,99161.13
2023-04-25T00:29:08.371Z,99165.63
2023-04-25T00:34:10.235Z,99170.25
2023-04-25T00:39:12.876Z,99166.56
2023-04-25T00:44:14.769Z,99165.63
2023-04-25T00:49:16.978Z,99174.19
2023-04-25T00:54:18.880Z,99172.88
2023-04-25T00:59:20.867Z,99175.94
2023-04-25T01:04:23.097Z,99179.81
2023-04-25T01:09:25.239Z,99169.63
2023-04-25T01:14:27.288Z,99161.47
2023-04-25T01:19:29.170Z,99159.41
2023-04-25T01:24:33.040Z,99146.66
2023-04-25T01:29:35.443Z,99145.88
2023-04-25T01:34:37.465Z,99147.56
2023-04-25T01:39:39.591Z,99152.56
2023-04-25T01:44:41.620Z,99146.97
2023-04-25T01:49:43.583Z,99141.00
2023-04-25T01:54:45.721Z,99154.91
2023-04-25T01:59:47.698Z,99140.63
2023-04-25T02:04:49.719Z,99134.31
2023-04-25T02:09:51.673Z,99145.69
2023-04-25T02:14:53.680Z,99141.91
2023-04-25T02:19:55.733Z,99144.91
2023-04-25T02:24:57.704Z,99140.72
2023-04-25T02:29:59.680Z,99131.81
2023-04-25T02:35:02.384Z,99136.97
2023-04-25T02:40:05.690Z,99131.94
2023-04-25T02:45:08.316Z,99123.94
2023-04-25T02:50:10.101Z,99106.75
2023-04-25T02:55:11.926Z,99126.00
2023-04-25T03:00:14.356Z,99139.53
2023-04-25T03:05:16.493Z,99129.22
2023-04-25T03:10:18.474Z,99125.97
2023-04-25T03:15:20.426Z,99151.72
2023-04-25T03:20:22.437Z,99143.84
2023-04-25T03:25:24.437Z,99143.13
2023-04-25T03:30:26.418Z,99144.94
2023-04-25T03:35:28.331Z,99125.84
2023-04-25T03:40:30.305Z,99129.50
2023-04-25T03:45:32.273Z,99127.47
2023-04-25T03:50:34.254Z,99110.16
2023-04-25T03:55:36.175Z,99121.06
2023-04-25T04:00:38.069Z,99135.13
2023-04-25T04:05:40.084Z,99130.34
2023-04-25T04:10:42.316Z,99123.44
2023-04-25T04:15:44.347Z,99114.03
2023-04-25T04:20:46.237Z,99104.38
2023-04-25T04:25:48.228Z,99098.25
2023-04-25T04:30:50.568Z,99100.72
2023-04-25T04:35:52.758Z,99107.72
2023-04-25T04:40:54.666Z,99117.16
2023-04-25T04:45:57.026Z,99112.75
2023-04-25T04:50:59.332Z,99116.28
2023-04-25T04:56:01.696Z,99116.66
2023-04-25T05:01:03.949Z,99114.81
2023-04-25T05:06:08.089Z,99119.44
2023-04-25T05:11:10.566Z,99115.72
2023-04-25T05:16:15.216Z,99117.31
2023-04-25T05:21:17.142Z,99111.69
2023-04-25T05:26:19.136Z,99102.41
2023-04-25T05:31:21.173Z,99110.91
2023-04-25T05:36:23.176Z,99114.84
2023-04-25T05:41:25.073Z,99107.59
2023-04-25T05:46:27.004Z,99089.88
2023-04-25T05:51:28.998Z,99087.34
2023-04-25T05:56:30.926Z,99083.31
2023-04-25T06:01:32.800Z,99073.09
2023-04-25T06:06:34.720Z,99064.16
2023-04-25T06:11:36.762Z,99077.28
2023-04-25T06:16:38.552Z,99058.97
2023-04-25T06:21:40.398Z,99044.28
2023-04-25T06:26:42.268Z,99045.34
2023-04-25T06:31:44.179Z,99043.88
2023-04-25T06:36:46.260Z,99035.00
2023-04-25T06:41:48.119Z,99040.47
2023-04-25T06:46:50.015Z,99026.72
2023-04-25T06:51:51.938Z,99042.28
2023-04-25T06:56:54.569Z,99033.28
2023-04-25T07:01:56.482Z,99035.44
2023-04-25T07:06:58.277Z,99027.16
2023-04-25T07:12:00.172Z,99038.69
2023-04-25T07:17:02.152Z,99038.59
2023-04-25T07:22:04.084Z,99033.78
2023-04-25T07:27:05.995Z,99032.09
2023-04-25T07:32:07.952Z,99028.94
2023-04-25T07:37:09.877Z,99023.34
2023-04-25T07:42:11.742Z,99022.75
2023-04-25T07:47:13.603Z,99020.75
2023-04-25T07:52:15.485Z,99021.28
2023-04-25T07:57:17.310Z,99043.56
2023-04-25T08:02:19.272Z,99057.34
2023-04-25T08:07:21.215Z,99051.03
2023-04-25T08:12:23.547Z,99053.09
2023-04-25T08:17:25.471Z,99049.47
2023-04-25T08:22:27.294Z,99045.97
2023-04-25T08:27:29.225Z,99051.84
2023-04-25T08:32:31.186Z,99041.03
2023-04-25T08:37:33.144Z,99041.63
2023-04-25T08:42:34.816Z,99041.28
2023-04-25T08:47:36.718Z,99045.19
2023-04-25T08:52:41.209Z,99043.31
2023-04-25T08:57:43.465Z,99035.53
2023-04-25T09:02:45.489Z,99034.28
2023-04-25T09:07:48.541Z,99017.81
2023-04-25T09:13:07.176Z,99016.97
2023-04-25T09:18:09.117Z,99007.38
2023-04-25T09:23:11.027Z,99019.59
2023-04-25T09:28:13.254Z,99004.56
2023-04-25T09:33:14.922Z,98991.75
2023-04-25T09:38:16.753Z,98995.34
2023-04-25T09:43:21.879Z,99001.78
2023-04-25T09:48:23.885Z,98980.78
2023-04-25T09:53:25.806Z,98984.50
2023-04-25T09:58:27.828Z,98985.22
2023-04-25T10:03:34.105Z,98984.84
2023-04-25T10:08:37.318Z,98987.38
2023-04-25T10:13:39.181Z,98979.56
2023-04-25T10:18:40.986Z,98970.66
2023-04-25T10:23:42.813Z,98982.09
2023-04-25T10:29:00.421Z,98970.16
2023-04-25T10:34:02.295Z,98952.88
2023-04-25T10:39:06.853Z,98948.25
2023-04-25T10:44:09.485Z,98942.75
2023-04-25T10:49:12.577Z,98929.75
2023-04-25T10:54:16.357Z,98933.22
2023-04-25T10:59:18.522Z,98933.44
2023-04-25T11:04:33.313Z,98926.38
2023-04-25T11:09:36.149Z,98920.81
2023-04-25T11:14:38.249Z,98907.00
2023-04-25T11:19:40.391Z,98911.44
2023-04-25T11:24:42.434Z,98907.59
2023-04-25T11:29:44.279Z,98893.13
2023-04-25T11:34:46.185Z,98891.16
2023-04-25T11:39:48.171Z,98888.03
2023-04-25T11:44:49.888Z,98885.72
2023-04-25T11:49:54.170Z,98873.34
2023-04-25T11:54:57.349Z,98854.28
2023-04-25T12:00:10.570Z,98845.44
2023-04-25T12:05:30.404Z,98840.56
2023-04-25T12:10:34.377Z,98829.25
2023-04-25T12:15:36.161Z,98835.50
2023-04-25T12:20:38.042Z,98832.16
2023-04-25T12:25:43.515Z,98824.59
2023-04-25T12:31:04.826Z,98813.19
2023-04-25T12:36:07.403Z,98799.72
2023-04-25T12:41:09.253Z,98794.78
2023-04-25T12:46:11.052Z,98789.56
2023-04-25T12:51:12.963Z,98781.91
2023-04-25T12:56:14.825Z,98786.66
2023-04-25T13:01:16.809Z,98770.34
2023-04-25T13:06:18.927Z,98775.22
2023-04-25T13:11:20.768Z,98765.16
2023-04-25T13:16:22.682Z,98757.25
2023-04-25T13:21:24.564Z,98744.75
2023-04-25T13:26:26.984Z,98743.53
2023-04-25T13:31:28.974Z,98739.38
2023-04-25T13:36:30.942Z,98738.19
2023-04-25T13:41:33.030Z,98736.03
2023-04-25T13:46:46.303Z,98731.63
2023-04-25T13:51:49.543Z,98722.81
2023-04-25T13:56:51.465Z,98712.00
2023-04-25T14:01:53.521Z,98727.16
2023-04-25T14:06:55.285Z,98715.03
2023-04-25T14:11:57.439Z,98705.34
2023-04-25T14:16:59.445Z,98696.91
2023-04-25T14:22:01.417Z,98689.00
2023-04-25T14:27:04.348Z,98686.22
2023-04-25T14:32:06.343Z,98669.91
2023-04-25T14:37:08.246Z,98668.16
2023-04-25T14:42:10.103Z,98667.28
2023-04-25T14:47:12.011Z,98640.91
2023-04-25T14:52:13.989Z,98639.00
2023-04-25T14:57:16.526Z,98622.25
2023-04-25T15:02:18.475Z,98618.28
2023-04-25T15:07:20.408Z,98615.09
2023-04-25T15:12:22.388Z,98601.03
2023-04-25T15:17:24.254Z,98585.03
2023-04-25T15:22:26.110Z,98586.84
2023-04-25T15:27:28.182Z,98572.34
2023-04-25T15:32:30.015Z,98566.09
2023-04-25T15:37:32.023Z,98561.97
2023-04-25T15:42:34.189Z,98559.44
2023-04-25T15:47:36.108Z,98560.03
2023-04-25T15:52:38.421Z,98551.78
2023-04-25T15:57:40.372Z,98545.50
2023-04-25T16:02:43.025Z,98536.78
2023-04-25T16:07:45.350Z,98537.13
2023-04-25T16:12:47.395Z,98541.25
2023-04-25T16:17:49.321Z,98531.78
2023-04-25T16:22:51.505Z,98527.91
2023-04-25T16:27:53.356Z,98527.53
2023-04-25T16:32:55.338Z,98527.91
2023-04-25T16:37:57.336Z,98523.63
2023-04-25T16:42:59.293Z,98528.25
2023-04-25T16:48:01.402Z,98522.88
2023-04-25T16:53:03.625Z,98514.75
2023-04-25T16:58:05.740Z,98504.09
2023-04-25T17:03:08.310Z,98515.50
2023-04-25T17:08:10.415Z,98511.25
2023-04-25T17:13:12.364Z,98505.19
2023-04-25T17:18:14.344Z,98501.44
2023-04-25T17:23:16.240Z,98507.03
2023-04-25T17:28:18.198Z,98501.44
2023-04-25T17:33:20.139Z,98494.53
2023-04-25T17:38:21.985Z,98490.19
2023-04-25T17:43:24.173Z,98484.75
2023-04-25T17:48:26.383Z,98490.09
2023-04-25T17:53:28.461Z,98502.16
2023-04-25T17:58:30.496Z,98493.53
2023-04-25T18:03:32.663Z,98501.84
2023-04-25T18:08:34.541Z,98504.91
2023-04-25T18:13:36.460Z,98499.91
2023-04-25T18:18:38.387Z,98502.41
2023-04-25T18:23:40.271Z,98509.63
2023-04-25T18:28:42.202Z,98503.78
2023-04-25T18:33:44.114Z,98506.47
2023-04-25T18:38:46.026Z,98499.56
2023-04-25T18:43:47.991Z,98502.97
2023-04-25T18:48:53.699Z,98496.25
2023-04-25T18:53:56.368Z,98500.06
2023-04-25T18:58:58.258Z,98484.34
2023-04-25T19:04:00.890Z,98479.28
2023-04-25T19:09:04.257Z,98470.22
2023-04-25T19:14:06.251Z,98466.31
2023-04-25T19:19:08.602Z,98465.88
2023-04-25T19:24:11.009Z,98464.38
2023-04-25T19:29:13.661Z,98456.41
2023-04-25T19:34:16.070Z,98452.06
2023-04-25T19:39:18.090Z,98457.63
2023-04-25T19:44:20.160Z,98443.50
2023-04-25T19:49:22.132Z,98445.19
2023-04-25T19:54:24.190Z,98439.78
2023-04-25T19:59:26.181Z,98432.16
2023-04-25T20:04:28.298Z,98424.81
2023-04-25T20:09:30.361Z,98422.47
2023-04-25T20:14:33.113Z,98414.50
2023-04-25T20:19:35.242Z,98402.84
2023-04-25T20:24:37.102Z,98403.06
2023-04-25T20:29:39.129Z,98387.66
2023-04-25T20:34:41.097Z,98379.81
2023-04-25T20:39:43.074Z,98374.50
2023-04-25T20:44:45.082Z,98368.53
2023-04-25T20:49:47.093Z,98367.84
2023-04-25T20:54:49.213Z,98349.63
2023-04-25T20:59:51.349Z,98350.06
2023-04-25T21:04:53.275Z,98351.13
2023-04-25T21:09:55.201Z,98325.97
2023-04-25T21:14:57.137Z,98318.34
2023-04-25T21:19:59.223Z,98311.84
2023-04-25T21:25:01.095Z,98317.63
2023-04-25T21:30:03.349Z,98298.53
2023-04-25T21:35:06.779Z,98298.47
2023-04-25T21:40:08.846Z,98290.44
2023-04-25T21:45:10.665Z,98288.13
2023-04-25T21:50:13.389Z,98289.53
2023-04-25T21:55:15.694Z,98280.88
2023-04-25T22:00:17.762Z,98278.28
2023-04-25T22:05:19.592Z,98270.75
2023-04-25T22:10:21.950Z,98268.41
2023-04-25T22:15:24.151Z,98263.78
2023-04-25T22:20:26.490Z,98264.59
2023-04-25T22:25:28.626Z,98259.28
2023-04-25T22:30:31.328Z,98252.31
2023-04-25T22:35:33.383Z,98244.13
2023-04-25T22:40:35.303Z,98251.81
2023-04-25T22:45:37.266Z,98242.56
2023-04-25T22:50:39.314Z,98232.66
2023-04-25T22:55:41.350Z,98223.34
2023-04-25T23:00:43.349Z,98220.97
2023-04-25T23:05:45.963Z,98209.94
2023-04-25T23:10:47.921Z,98206.59
2023-04-25T23:15:49.844Z,98206.16
2023-04-25T23:20:51.718Z,98195.03
2023-04-25T23:25:53.721Z,98192.47
2023-04-25T23:30:59.502Z,98179.81
2023-04-25T23:36:01.602Z,98175.03
2023-04-25T23:41:04.059Z,98180.00
2023-04-25T23:46:06.513Z,98173.66
2023-04-25T23:51:08.842Z,98160.88
2023-04-25T23:56:10.983Z,98158.91
